sensor_id;sensor_type;location;lat;lon;timestamp;P1;durP1;ratioP1;P2;durP2;ratioP2
9671;SDS011;4874;43.568;27.824;2023-08-06T00:00:30;17.17;;;10.38;;
9671;SDS011;4874;43.568;27.824;2023-08-06T00:02:57;17.15;;;11.40;;
9671;SDS011;4874;43.568;27.824;2023-08-06T00:05:23;13.38;;;10.50;;
9671;SDS011;4874;43.568;27.824;2023-08-06T00:07:50;13.63;;;10.68;;
9671;SDS011;4874;43.568;27.824;2023-08-06T00:10:17;19.20;;;10.68;;
9671;SDS011;4874;43.568;27.824;2023-08-06T00:12:44;13.88;;;11.05;;
9671;SDS011;4874;43.568;27.824;2023-08-06T00:15:11;14.20;;;10.90;;
9671;SDS011;4874;43.568;27.824;2023-08-06T00:17:38;14.10;;;11.05;;
9671;SDS011;4874;43.568;27.824;2023-08-06T00:20:05;13.73;;;10.63;;
9671;SDS011;4874;43.568;27.824;2023-08-06T00:22:36;19.27;;;12.02;;
9671;SDS011;4874;43.568;27.824;2023-08-06T00:25:04;15.93;;;12.52;;
9671;SDS011;4874;43.568;27.824;2023-08-06T00:27:31;17.63;;;12.00;;
9671;SDS011;4874;43.568;27.824;2023-08-06T00:29:59;17.80;;;11.93;;
9671;SDS011;4874;43.568;27.824;2023-08-06T00:32:25;14.95;;;11.27;;
9671;SDS011;4874;43.568;27.824;2023-08-06T00:34:52;16.98;;;12.30;;
9671;SDS011;4874;43.568;27.824;2023-08-06T00:37:19;19.33;;;11.93;;
9671;SDS011;4874;43.568;27.824;2023-08-06T00:39:46;19.27;;;11.82;;
9671;SDS011;4874;43.568;27.824;2023-08-06T00:42:12;14.93;;;11.48;;
9671;SDS011;4874;43.568;27.824;2023-08-06T00:44:39;14.10;;;12.20;;
9671;SDS011;4874;43.568;27.824;2023-08-06T00:47:07;18.52;;;11.88;;
9671;SDS011;4874;43.568;27.824;2023-08-06T00:49:37;15.23;;;11.50;;
9671;SDS011;4874;43.568;27.824;2023-08-06T00:52:05;17.10;;;12.75;;
9671;SDS011;4874;43.568;27.824;2023-08-06T00:54:34;15.43;;;11.77;;
9671;SDS011;4874;43.568;27.824;2023-08-06T00:57:01;16.63;;;12.43;;
9671;SDS011;4874;43.568;27.824;2023-08-06T00:59:30;16.42;;;12.68;;
9671;SDS011;4874;43.568;27.824;2023-08-06T01:01:57;20.27;;;12.13;;
9671;SDS011;4874;43.568;27.824;2023-08-06T01:04:24;18.60;;;13.05;;
9671;SDS011;4874;43.568;27.824;2023-08-06T01:09:43;15.75;;;11.35;;
9671;SDS011;4874;43.568;27.824;2023-08-06T01:15:29;15.88;;;11.45;;
9671;SDS011;4874;43.568;27.824;2023-08-06T01:17:59;15.57;;;11.70;;
9671;SDS011;4874;43.568;27.824;2023-08-06T01:20:28;13.77;;;10.93;;
9671;SDS011;4874;43.568;27.824;2023-08-06T01:22:55;15.32;;;11.20;;
9671;SDS011;4874;43.568;27.824;2023-08-06T01:25:22;14.18;;;10.73;;
9671;SDS011;4874;43.568;27.824;2023-08-06T01:28:03;16.30;;;11.60;;
9671;SDS011;4874;43.568;27.824;2023-08-06T01:30:36;14.20;;;10.02;;
9671;SDS011;4874;43.568;27.824;2023-08-06T01:33:07;14.10;;;10.43;;
9671;SDS011;4874;43.568;27.824;2023-08-06T01:35:41;16.15;;;9.90;;
9671;SDS011;4874;43.568;27.824;2023-08-06T01:38:08;14.50;;;10.73;;
9671;SDS011;4874;43.568;27.824;2023-08-06T01:40:35;15.80;;;10.02;;
9671;SDS011;4874;43.568;27.824;2023-08-06T01:43:02;12.50;;;9.85;;
9671;SDS011;4874;43.568;27.824;2023-08-06T01:45:29;14.05;;;10.30;;
9671;SDS011;4874;43.568;27.824;2023-08-06T01:47:56;12.52;;;9.93;;
9671;SDS011;4874;43.568;27.824;2023-08-06T01:50:22;15.18;;;11.25;;
9671;SDS011;4874;43.568;27.824;2023-08-06T01:52:49;16.17;;;11.10;;
9671;SDS011;4874;43.568;27.824;2023-08-06T01:55:16;16.92;;;11.05;;
9671;SDS011;4874;43.568;27.824;2023-08-06T01:57:44;18.70;;;11.85;;
9671;SDS011;4874;43.568;27.824;2023-08-06T02:00:11;18.33;;;11.82;;
9671;SDS011;4874;43.568;27.824;2023-08-06T02:02:38;19.00;;;11.85;;
9671;SDS011;4874;43.568;27.824;2023-08-06T02:05:07;14.95;;;11.13;;
9671;SDS011;4874;43.568;27.824;2023-08-06T02:07:36;15.75;;;11.10;;
9671;SDS011;4874;43.568;27.824;2023-08-06T02:10:03;17.88;;;11.40;;
9671;SDS011;4874;43.568;27.824;2023-08-06T02:12:29;14.07;;;10.18;;
9671;SDS011;4874;43.568;27.824;2023-08-06T02:14:56;13.23;;;10.48;;
9671;SDS011;4874;43.568;27.824;2023-08-06T02:17:23;14.50;;;9.70;;
9671;SDS011;4874;43.568;27.824;2023-08-06T02:19:50;13.13;;;9.48;;
9671;SDS011;4874;43.568;27.824;2023-08-06T02:22:16;13.50;;;9.75;;
9671;SDS011;4874;43.568;27.824;2023-08-06T02:24:43;15.10;;;9.32;;
9671;SDS011;4874;43.568;27.824;2023-08-06T02:27:10;14.70;;;9.55;;
9671;SDS011;4874;43.568;27.824;2023-08-06T02:29:37;11.57;;;9.80;;
9671;SDS011;4874;43.568;27.824;2023-08-06T02:32:06;15.95;;;9.77;;
9671;SDS011;4874;43.568;27.824;2023-08-06T02:34:33;16.70;;;10.50;;
9671;SDS011;4874;43.568;27.824;2023-08-06T02:37:00;17.73;;;10.57;;
9671;SDS011;4874;43.568;27.824;2023-08-06T02:39:26;15.55;;;11.35;;
9671;SDS011;4874;43.568;27.824;2023-08-06T02:41:53;11.48;;;8.88;;
9671;SDS011;4874;43.568;27.824;2023-08-06T02:44:20;14.60;;;10.15;;
9671;SDS011;4874;43.568;27.824;2023-08-06T02:46:47;17.92;;;10.70;;
9671;SDS011;4874;43.568;27.824;2023-08-06T02:49:14;13.77;;;10.13;;
9671;SDS011;4874;43.568;27.824;2023-08-06T02:51:40;16.77;;;10.23;;
9671;SDS011;4874;43.568;27.824;2023-08-06T02:54:07;13.93;;;9.73;;
9671;SDS011;4874;43.568;27.824;2023-08-06T02:56:34;14.15;;;9.35;;
9671;SDS011;4874;43.568;27.824;2023-08-06T02:59:01;11.52;;;9.18;;
9671;SDS011;4874;43.568;27.824;2023-08-06T03:01:27;12.55;;;9.52;;
9671;SDS011;4874;43.568;27.824;2023-08-06T03:03:55;17.05;;;9.50;;
9671;SDS011;4874;43.568;27.824;2023-08-06T03:06:21;13.98;;;10.40;;
9671;SDS011;4874;43.568;27.824;2023-08-06T03:08:48;15.75;;;10.80;;
9671;SDS011;4874;43.568;27.824;2023-08-06T03:11:15;14.98;;;10.73;;
9671;SDS011;4874;43.568;27.824;2023-08-06T03:13:41;14.88;;;10.07;;
9671;SDS011;4874;43.568;27.824;2023-08-06T03:16:08;16.65;;;10.32;;
9671;SDS011;4874;43.568;27.824;2023-08-06T03:18:35;16.60;;;10.52;;
9671;SDS011;4874;43.568;27.824;2023-08-06T03:21:02;16.10;;;10.93;;
9671;SDS011;4874;43.568;27.824;2023-08-06T03:23:29;16.38;;;11.13;;
9671;SDS011;4874;43.568;27.824;2023-08-06T03:25:55;15.85;;;10.73;;
9671;SDS011;4874;43.568;27.824;2023-08-06T03:28:22;16.17;;;11.23;;
9671;SDS011;4874;43.568;27.824;2023-08-06T03:30:58;15.93;;;10.55;;
9671;SDS011;4874;43.568;27.824;2023-08-06T03:33:29;17.23;;;11.00;;
9671;SDS011;4874;43.568;27.824;2023-08-06T03:35:56;15.40;;;9.68;;
9671;SDS011;4874;43.568;27.824;2023-08-06T03:38:23;15.88;;;10.25;;
9671;SDS011;4874;43.568;27.824;2023-08-06T03:40:50;13.13;;;10.57;;
9671;SDS011;4874;43.568;27.824;2023-08-06T03:43:17;16.10;;;10.10;;
9671;SDS011;4874;43.568;27.824;2023-08-06T03:45:44;15.05;;;9.80;;
9671;SDS011;4874;43.568;27.824;2023-08-06T03:48:10;14.02;;;9.60;;
9671;SDS011;4874;43.568;27.824;2023-08-06T03:50:37;14.20;;;9.02;;
9671;SDS011;4874;43.568;27.824;2023-08-06T03:53:05;12.35;;;9.35;;
9671;SDS011;4874;43.568;27.824;2023-08-06T03:55:31;14.10;;;9.45;;
9671;SDS011;4874;43.568;27.824;2023-08-06T03:57:58;11.15;;;9.80;;
9671;SDS011;4874;43.568;27.824;2023-08-06T04:00:25;13.43;;;10.10;;
9671;SDS011;4874;43.568;27.824;2023-08-06T04:02:51;13.98;;;10.43;;
9671;SDS011;4874;43.568;27.824;2023-08-06T04:05:19;15.40;;;10.68;;
9671;SDS011;4874;43.568;27.824;2023-08-06T04:07:46;12.10;;;9.40;;
9671;SDS011;4874;43.568;27.824;2023-08-06T04:10:12;13.15;;;9.20;;
9671;SDS011;4874;43.568;27.824;2023-08-06T04:12:39;14.27;;;9.48;;
9671;SDS011;4874;43.568;27.824;2023-08-06T04:15:06;16.42;;;10.27;;
9671;SDS011;4874;43.568;27.824;2023-08-06T04:17:33;15.88;;;9.73;;
9671;SDS011;4874;43.568;27.824;2023-08-06T04:20:00;11.48;;;9.02;;
9671;SDS011;4874;43.568;27.824;2023-08-06T04:22:27;12.43;;;9.35;;
9671;SDS011;4874;43.568;27.824;2023-08-06T04:24:53;14.27;;;8.75;;
9671;SDS011;4874;43.568;27.824;2023-08-06T04:27:20;12.70;;;9.32;;
9671;SDS011;4874;43.568;27.824;2023-08-06T04:29:47;16.08;;;9.90;;
9671;SDS011;4874;43.568;27.824;2023-08-06T04:32:14;17.75;;;10.38;;
9671;SDS011;4874;43.568;27.824;2023-08-06T04:34:40;14.68;;;9.45;;
9671;SDS011;4874;43.568;27.824;2023-08-06T04:37:07;15.38;;;10.18;;
9671;SDS011;4874;43.568;27.824;2023-08-06T04:39:34;12.18;;;9.75;;
9671;SDS011;4874;43.568;27.824;2023-08-06T04:42:01;14.85;;;9.02;;
9671;SDS011;4874;43.568;27.824;2023-08-06T04:44:28;17.05;;;10.32;;
9671;SDS011;4874;43.568;27.824;2023-08-06T04:46:54;15.75;;;9.90;;
9671;SDS011;4874;43.568;27.824;2023-08-06T04:49:21;12.75;;;9.77;;
9671;SDS011;4874;43.568;27.824;2023-08-06T04:51:48;12.52;;;10.07;;
9671;SDS011;4874;43.568;27.824;2023-08-06T04:54:15;13.75;;;9.85;;
9671;SDS011;4874;43.568;27.824;2023-08-06T04:56:42;12.82;;;10.10;;
9671;SDS011;4874;43.568;27.824;2023-08-06T04:59:08;13.32;;;10.60;;
9671;SDS011;4874;43.568;27.824;2023-08-06T05:01:35;13.45;;;10.05;;
9671;SDS011;4874;43.568;27.824;2023-08-06T05:04:02;13.05;;;10.45;;
9671;SDS011;4874;43.568;27.824;2023-08-06T05:06:29;14.85;;;11.35;;
9671;SDS011;4874;43.568;27.824;2023-08-06T05:08:56;14.70;;;10.80;;
9671;SDS011;4874;43.568;27.824;2023-08-06T05:11:22;12.93;;;10.57;;
9671;SDS011;4874;43.568;27.824;2023-08-06T05:13:50;17.13;;;11.88;;
9671;SDS011;4874;43.568;27.824;2023-08-06T05:16:17;16.27;;;11.93;;
9671;SDS011;4874;43.568;27.824;2023-08-06T05:18:44;16.17;;;11.60;;
9671;SDS011;4874;43.568;27.824;2023-08-06T05:21:10;16.25;;;11.38;;
9671;SDS011;4874;43.568;27.824;2023-08-06T05:23:37;18.65;;;10.85;;
9671;SDS011;4874;43.568;27.824;2023-08-06T05:26:04;16.58;;;10.80;;
9671;SDS011;4874;43.568;27.824;2023-08-06T05:28:31;16.23;;;10.68;;
9671;SDS011;4874;43.568;27.824;2023-08-06T05:30:57;19.52;;;10.38;;
9671;SDS011;4874;43.568;27.824;2023-08-06T05:33:24;14.23;;;9.38;;
9671;SDS011;4874;43.568;27.824;2023-08-06T05:35:51;12.38;;;9.75;;
9671;SDS011;4874;43.568;27.824;2023-08-06T05:38:17;14.57;;;8.95;;
9671;SDS011;4874;43.568;27.824;2023-08-06T05:40:44;11.50;;;8.80;;
9671;SDS011;4874;43.568;27.824;2023-08-06T05:43:11;12.02;;;9.55;;
9671;SDS011;4874;43.568;27.824;2023-08-06T05:45:38;15.43;;;9.32;;
9671;SDS011;4874;43.568;27.824;2023-08-06T05:48:04;12.13;;;7.80;;
9671;SDS011;4874;43.568;27.824;2023-08-06T05:50:31;15.55;;;8.52;;
9671;SDS011;4874;43.568;27.824;2023-08-06T05:52:58;10.32;;;7.20;;
9671;SDS011;4874;43.568;27.824;2023-08-06T05:55:27;13.82;;;8.15;;
9671;SDS011;4874;43.568;27.824;2023-08-06T05:57:54;11.45;;;7.45;;
9671;SDS011;4874;43.568;27.824;2023-08-06T06:00:21;12.10;;;7.20;;
9671;SDS011;4874;43.568;27.824;2023-08-06T06:02:48;10.55;;;7.43;;
9671;SDS011;4874;43.568;27.824;2023-08-06T06:05:15;12.88;;;7.03;;
9671;SDS011;4874;43.568;27.824;2023-08-06T06:07:41;11.00;;;7.03;;
9671;SDS011;4874;43.568;27.824;2023-08-06T06:10:08;8.57;;;6.22;;
9671;SDS011;4874;43.568;27.824;2023-08-06T06:12:35;9.65;;;5.88;;
9671;SDS011;4874;43.568;27.824;2023-08-06T06:15:05;9.43;;;6.35;;
9671;SDS011;4874;43.568;27.824;2023-08-06T06:17:32;10.27;;;6.70;;
9671;SDS011;4874;43.568;27.824;2023-08-06T06:19:59;10.25;;;6.25;;
9671;SDS011;4874;43.568;27.824;2023-08-06T06:22:26;10.68;;;6.00;;
9671;SDS011;4874;43.568;27.824;2023-08-06T06:24:53;11.85;;;6.03;;
9671;SDS011;4874;43.568;27.824;2023-08-06T06:27:19;9.55;;;6.20;;
9671;SDS011;4874;43.568;27.824;2023-08-06T06:29:46;10.80;;;6.05;;
9671;SDS011;4874;43.568;27.824;2023-08-06T06:32:13;11.23;;;6.53;;
9671;SDS011;4874;43.568;27.824;2023-08-06T06:34:40;10.93;;;6.35;;
9671;SDS011;4874;43.568;27.824;2023-08-06T06:37:06;8.93;;;6.22;;
9671;SDS011;4874;43.568;27.824;2023-08-06T06:39:33;8.23;;;5.63;;
9671;SDS011;4874;43.568;27.824;2023-08-06T06:42:00;11.77;;;6.60;;
9671;SDS011;4874;43.568;27.824;2023-08-06T06:44:27;11.63;;;6.40;;
9671;SDS011;4874;43.568;27.824;2023-08-06T06:46:53;10.25;;;6.03;;
9671;SDS011;4874;43.568;27.824;2023-08-06T06:49:20;9.68;;;5.78;;
9671;SDS011;4874;43.568;27.824;2023-08-06T06:51:47;9.85;;;6.13;;
9671;SDS011;4874;43.568;27.824;2023-08-06T06:54:14;7.60;;;6.00;;
9671;SDS011;4874;43.568;27.824;2023-08-06T06:56:41;9.57;;;5.63;;
9671;SDS011;4874;43.568;27.824;2023-08-06T06:59:08;8.13;;;5.68;;
9671;SDS011;4874;43.568;27.824;2023-08-06T07:01:35;9.00;;;5.53;;
9671;SDS011;4874;43.568;27.824;2023-08-06T07:04:01;8.10;;;5.68;;
9671;SDS011;4874;43.568;27.824;2023-08-06T07:06:31;10.20;;;5.65;;
9671;SDS011;4874;43.568;27.824;2023-08-06T07:08:58;7.32;;;4.90;;
9671;SDS011;4874;43.568;27.824;2023-08-06T07:11:25;10.75;;;6.22;;
9671;SDS011;4874;43.568;27.824;2023-08-06T07:14:01;7.82;;;5.25;;
9671;SDS011;4874;43.568;27.824;2023-08-06T07:16:27;6.75;;;5.28;;
9671;SDS011;4874;43.568;27.824;2023-08-06T07:18:55;6.80;;;5.95;;
9671;SDS011;4874;43.568;27.824;2023-08-06T07:21:22;7.50;;;4.82;;
9671;SDS011;4874;43.568;27.824;2023-08-06T07:23:49;9.30;;;5.53;;
9671;SDS011;4874;43.568;27.824;2023-08-06T07:26:16;6.07;;;4.72;;
9671;SDS011;4874;43.568;27.824;2023-08-06T07:28:43;8.05;;;4.63;;
9671;SDS011;4874;43.568;27.824;2023-08-06T07:31:11;6.55;;;4.93;;
9671;SDS011;4874;43.568;27.824;2023-08-06T07:33:38;6.32;;;4.80;;
9671;SDS011;4874;43.568;27.824;2023-08-06T07:36:12;6.78;;;4.38;;
9671;SDS011;4874;43.568;27.824;2023-08-06T07:38:40;7.82;;;4.90;;
9671;SDS011;4874;43.568;27.824;2023-08-06T07:41:07;7.53;;;4.55;;
9671;SDS011;4874;43.568;27.824;2023-08-06T07:43:35;6.75;;;5.00;;
9671;SDS011;4874;43.568;27.824;2023-08-06T07:46:02;7.30;;;4.47;;
9671;SDS011;4874;43.568;27.824;2023-08-06T07:48:29;8.25;;;4.60;;
9671;SDS011;4874;43.568;27.824;2023-08-06T07:50:56;6.38;;;4.35;;
9671;SDS011;4874;43.568;27.824;2023-08-06T07:53:24;7.30;;;4.55;;
9671;SDS011;4874;43.568;27.824;2023-08-06T07:55:55;6.60;;;4.03;;
9671;SDS011;4874;43.568;27.824;2023-08-06T07:58:23;8.90;;;4.65;;
9671;SDS011;4874;43.568;27.824;2023-08-06T08:00:51;10.45;;;4.63;;
9671;SDS011;4874;43.568;27.824;2023-08-06T08:03:18;7.90;;;4.57;;
9671;SDS011;4874;43.568;27.824;2023-08-06T08:05:46;5.80;;;4.13;;
9671;SDS011;4874;43.568;27.824;2023-08-06T08:08:13;6.68;;;4.80;;
9671;SDS011;4874;43.568;27.824;2023-08-06T08:10:40;7.03;;;4.47;;
9671;SDS011;4874;43.568;27.824;2023-08-06T08:13:07;6.80;;;4.45;;
9671;SDS011;4874;43.568;27.824;2023-08-06T08:15:34;8.25;;;4.30;;
9671;SDS011;4874;43.568;27.824;2023-08-06T08:18:01;5.57;;;3.78;;
9671;SDS011;4874;43.568;27.824;2023-08-06T08:20:28;7.50;;;4.75;;
9671;SDS011;4874;43.568;27.824;2023-08-06T08:22:59;5.53;;;4.07;;
9671;SDS011;4874;43.568;27.824;2023-08-06T08:25:27;7.07;;;4.60;;
9671;SDS011;4874;43.568;27.824;2023-08-06T08:27:56;7.68;;;4.13;;
9671;SDS011;4874;43.568;27.824;2023-08-06T08:30:24;7.45;;;3.90;;
9671;SDS011;4874;43.568;27.824;2023-08-06T08:32:51;7.00;;;3.72;;
9671;SDS011;4874;43.568;27.824;2023-08-06T08:35:18;6.95;;;4.20;;
9671;SDS011;4874;43.568;27.824;2023-08-06T08:37:45;7.45;;;4.25;;
9671;SDS011;4874;43.568;27.824;2023-08-06T08:40:13;7.25;;;4.22;;
9671;SDS011;4874;43.568;27.824;2023-08-06T08:42:40;7.25;;;4.15;;
9671;SDS011;4874;43.568;27.824;2023-08-06T08:45:12;8.20;;;4.13;;
9671;SDS011;4874;43.568;27.824;2023-08-06T08:47:43;13.43;;;4.80;;
9671;SDS011;4874;43.568;27.824;2023-08-06T08:50:11;8.77;;;4.20;;
9671;SDS011;4874;43.568;27.824;2023-08-06T08:52:38;7.55;;;4.20;;
9671;SDS011;4874;43.568;27.824;2023-08-06T08:55:06;7.40;;;4.22;;
9671;SDS011;4874;43.568;27.824;2023-08-06T08:57:34;7.78;;;4.30;;
9671;SDS011;4874;43.568;27.824;2023-08-06T09:00:01;5.68;;;4.07;;
9671;SDS011;4874;43.568;27.824;2023-08-06T09:02:28;7.82;;;4.50;;
9671;SDS011;4874;43.568;27.824;2023-08-06T09:05:00;7.20;;;4.32;;
9671;SDS011;4874;43.568;27.824;2023-08-06T09:07:43;8.10;;;4.00;;
9671;SDS011;4874;43.568;27.824;2023-08-06T09:10:16;9.52;;;3.92;;
9671;SDS011;4874;43.568;27.824;2023-08-06T09:12:44;8.70;;;5.82;;
9671;SDS011;4874;43.568;27.824;2023-08-06T09:15:12;10.75;;;4.50;;
9671;SDS011;4874;43.568;27.824;2023-08-06T09:17:39;8.30;;;4.60;;
9671;SDS011;4874;43.568;27.824;2023-08-06T09:20:10;7.20;;;4.10;;
9671;SDS011;4874;43.568;27.824;2023-08-06T09:22:40;6.57;;;3.75;;
9671;SDS011;4874;43.568;27.824;2023-08-06T09:25:07;9.18;;;4.20;;
9671;SDS011;4874;43.568;27.824;2023-08-06T09:27:36;5.50;;;3.95;;
9671;SDS011;4874;43.568;27.824;2023-08-06T09:30:04;6.82;;;4.13;;
9671;SDS011;4874;43.568;27.824;2023-08-06T09:32:44;7.35;;;4.28;;
9671;SDS011;4874;43.568;27.824;2023-08-06T09:35:15;7.82;;;4.65;;
9671;SDS011;4874;43.568;27.824;2023-08-06T09:37:45;5.53;;;4.50;;
9671;SDS011;4874;43.568;27.824;2023-08-06T09:40:27;8.23;;;4.03;;
9671;SDS011;4874;43.568;27.824;2023-08-06T09:42:56;6.97;;;4.13;;
9671;SDS011;4874;43.568;27.824;2023-08-06T09:45:37;7.35;;;4.03;;
9671;SDS011;4874;43.568;27.824;2023-08-06T09:48:07;6.57;;;4.18;;
9671;SDS011;4874;43.568;27.824;2023-08-06T09:50:36;6.82;;;3.83;;
9671;SDS011;4874;43.568;27.824;2023-08-06T09:53:05;5.13;;;4.00;;
9671;SDS011;4874;43.568;27.824;2023-08-06T09:55:34;9.43;;;4.60;;
9671;SDS011;4874;43.568;27.824;2023-08-06T09:58:01;5.82;;;4.10;;
9671;SDS011;4874;43.568;27.824;2023-08-06T10:00:29;4.82;;;3.83;;
9671;SDS011;4874;43.568;27.824;2023-08-06T10:03:01;7.28;;;4.45;;
9671;SDS011;4874;43.568;27.824;2023-08-06T10:05:28;7.25;;;3.85;;
9671;SDS011;4874;43.568;27.824;2023-08-06T10:07:57;6.15;;;4.13;;
9671;SDS011;4874;43.568;27.824;2023-08-06T10:10:26;8.23;;;4.75;;
9671;SDS011;4874;43.568;27.824;2023-08-06T10:12:55;6.05;;;4.10;;
9671;SDS011;4874;43.568;27.824;2023-08-06T10:15:25;7.63;;;4.40;;
9671;SDS011;4874;43.568;27.824;2023-08-06T10:17:54;5.85;;;4.35;;
9671;SDS011;4874;43.568;27.824;2023-08-06T10:20:23;6.07;;;4.30;;
9671;SDS011;4874;43.568;27.824;2023-08-06T10:23:04;7.97;;;4.32;;
9671;SDS011;4874;43.568;27.824;2023-08-06T10:25:32;7.78;;;4.20;;
9671;SDS011;4874;43.568;27.824;2023-08-06T10:28:06;8.38;;;4.43;;
9671;SDS011;4874;43.568;27.824;2023-08-06T10:30:42;6.47;;;4.60;;
9671;SDS011;4874;43.568;27.824;2023-08-06T10:33:10;9.25;;;4.60;;
9671;SDS011;4874;43.568;27.824;2023-08-06T10:35:44;6.57;;;4.88;;
9671;SDS011;4874;43.568;27.824;2023-08-06T10:38:22;6.60;;;4.38;;
9671;SDS011;4874;43.568;27.824;2023-08-06T10:43:33;7.63;;;4.40;;
9671;SDS011;4874;43.568;27.824;2023-08-06T10:46:02;8.57;;;4.28;;
9671;SDS011;4874;43.568;27.824;2023-08-06T10:51:00;7.05;;;4.90;;
9671;SDS011;4874;43.568;27.824;2023-08-06T10:53:28;6.35;;;4.72;;
9671;SDS011;4874;43.568;27.824;2023-08-06T10:55:58;6.28;;;4.65;;
9671;SDS011;4874;43.568;27.824;2023-08-06T10:58:25;9.40;;;5.43;;
9671;SDS011;4874;43.568;27.824;2023-08-06T11:00:52;6.70;;;4.70;;
9671;SDS011;4874;43.568;27.824;2023-08-06T11:03:19;6.82;;;4.68;;
9671;SDS011;4874;43.568;27.824;2023-08-06T11:05:49;9.82;;;4.68;;
9671;SDS011;4874;43.568;27.824;2023-08-06T11:08:26;6.90;;;4.97;;
9671;SDS011;4874;43.568;27.824;2023-08-06T11:10:53;7.22;;;4.75;;
9671;SDS011;4874;43.568;27.824;2023-08-06T11:13:28;6.97;;;5.07;;
9671;SDS011;4874;43.568;27.824;2023-08-06T11:15:56;6.18;;;4.53;;
9671;SDS011;4874;43.568;27.824;2023-08-06T11:18:24;7.47;;;5.32;;
9671;SDS011;4874;43.568;27.824;2023-08-06T11:20:51;7.13;;;4.65;;
9671;SDS011;4874;43.568;27.824;2023-08-06T11:23:18;7.68;;;5.07;;
9671;SDS011;4874;43.568;27.824;2023-08-06T11:25:45;11.68;;;5.07;;
9671;SDS011;4874;43.568;27.824;2023-08-06T11:28:12;8.05;;;5.00;;
9671;SDS011;4874;43.568;27.824;2023-08-06T11:30:39;7.30;;;5.03;;
9671;SDS011;4874;43.568;27.824;2023-08-06T11:33:06;7.10;;;4.60;;
9671;SDS011;4874;43.568;27.824;2023-08-06T11:35:36;8.45;;;5.00;;
9671;SDS011;4874;43.568;27.824;2023-08-06T11:38:04;6.18;;;4.68;;
9671;SDS011;4874;43.568;27.824;2023-08-06T11:40:31;7.25;;;5.07;;
9671;SDS011;4874;43.568;27.824;2023-08-06T11:42:59;7.53;;;4.90;;
9671;SDS011;4874;43.568;27.824;2023-08-06T11:45:26;6.88;;;5.22;;
9671;SDS011;4874;43.568;27.824;2023-08-06T11:47:52;8.27;;;4.60;;
9671;SDS011;4874;43.568;27.824;2023-08-06T11:50:26;8.65;;;5.05;;
9671;SDS011;4874;43.568;27.824;2023-08-06T11:52:54;6.82;;;4.95;;
9671;SDS011;4874;43.568;27.824;2023-08-06T11:55:24;8.70;;;5.30;;
9671;SDS011;4874;43.568;27.824;2023-08-06T11:57:51;7.28;;;5.18;;
9671;SDS011;4874;43.568;27.824;2023-08-06T12:00:18;7.35;;;4.90;;
9671;SDS011;4874;43.568;27.824;2023-08-06T12:02:48;5.85;;;4.90;;
9671;SDS011;4874;43.568;27.824;2023-08-06T12:05:19;7.07;;;4.78;;
9671;SDS011;4874;43.568;27.824;2023-08-06T12:07:48;8.02;;;4.50;;
9671;SDS011;4874;43.568;27.824;2023-08-06T12:10:16;8.20;;;4.57;;
9671;SDS011;4874;43.568;27.824;2023-08-06T12:12:43;7.03;;;4.20;;
9671;SDS011;4874;43.568;27.824;2023-08-06T12:15:10;9.82;;;4.68;;
9671;SDS011;4874;43.568;27.824;2023-08-06T12:17:37;56.15;;;6.18;;
9671;SDS011;4874;43.568;27.824;2023-08-06T12:20:05;35.08;;;5.05;;
9671;SDS011;4874;43.568;27.824;2023-08-06T12:22:33;16.85;;;3.80;;
9671;SDS011;4874;43.568;27.824;2023-08-06T12:25:08;13.70;;;3.63;;
9671;SDS011;4874;43.568;27.824;2023-08-06T12:27:38;8.57;;;3.47;;
9671;SDS011;4874;43.568;27.824;2023-08-06T12:30:08;10.38;;;4.47;;
9671;SDS011;4874;43.568;27.824;2023-08-06T12:32:35;10.85;;;4.68;;
9671;SDS011;4874;43.568;27.824;2023-08-06T12:35:02;6.75;;;4.05;;
9671;SDS011;4874;43.568;27.824;2023-08-06T12:37:31;11.93;;;3.92;;
9671;SDS011;4874;43.568;27.824;2023-08-06T12:39:57;7.65;;;4.38;;
9671;SDS011;4874;43.568;27.824;2023-08-06T12:42:24;7.63;;;4.63;;
9671;SDS011;4874;43.568;27.824;2023-08-06T12:44:51;6.35;;;3.83;;
9671;SDS011;4874;43.568;27.824;2023-08-06T12:47:18;8.55;;;3.78;;
9671;SDS011;4874;43.568;27.824;2023-08-06T12:49:46;5.95;;;3.78;;
9671;SDS011;4874;43.568;27.824;2023-08-06T12:52:13;8.48;;;4.10;;
9671;SDS011;4874;43.568;27.824;2023-08-06T12:54:41;7.63;;;4.03;;
9671;SDS011;4874;43.568;27.824;2023-08-06T12:57:08;6.03;;;4.18;;
9671;SDS011;4874;43.568;27.824;2023-08-06T12:59:35;7.25;;;4.20;;
9671;SDS011;4874;43.568;27.824;2023-08-06T13:02:03;5.57;;;3.78;;
9671;SDS011;4874;43.568;27.824;2023-08-06T13:04:30;6.20;;;4.65;;
9671;SDS011;4874;43.568;27.824;2023-08-06T13:06:57;5.82;;;4.10;;
9671;SDS011;4874;43.568;27.824;2023-08-06T13:09:24;8.20;;;4.78;;
9671;SDS011;4874;43.568;27.824;2023-08-06T13:11:52;6.13;;;3.72;;
9671;SDS011;4874;43.568;27.824;2023-08-06T13:14:19;7.10;;;4.05;;
9671;SDS011;4874;43.568;27.824;2023-08-06T13:16:46;7.05;;;4.10;;
9671;SDS011;4874;43.568;27.824;2023-08-06T13:19:13;5.95;;;4.10;;
9671;SDS011;4874;43.568;27.824;2023-08-06T13:24:07;5.93;;;4.13;;
9671;SDS011;4874;43.568;27.824;2023-08-06T13:26:36;8.75;;;4.30;;
9671;SDS011;4874;43.568;27.824;2023-08-06T13:29:03;5.10;;;3.40;;
9671;SDS011;4874;43.568;27.824;2023-08-06T13:31:30;4.57;;;3.40;;
9671;SDS011;4874;43.568;27.824;2023-08-06T13:33:57;4.93;;;3.40;;
9671;SDS011;4874;43.568;27.824;2023-08-06T13:36:27;6.15;;;3.65;;
9671;SDS011;4874;43.568;27.824;2023-08-06T13:38:54;4.72;;;3.38;;
9671;SDS011;4874;43.568;27.824;2023-08-06T13:41:21;5.38;;;3.60;;
9671;SDS011;4874;43.568;27.824;2023-08-06T13:43:48;5.55;;;3.58;;
9671;SDS011;4874;43.568;27.824;2023-08-06T13:46:15;7.15;;;3.85;;
9671;SDS011;4874;43.568;27.824;2023-08-06T13:48:47;6.63;;;3.60;;
9671;SDS011;4874;43.568;27.824;2023-08-06T13:51:17;5.72;;;3.90;;
9671;SDS011;4874;43.568;27.824;2023-08-06T13:53:44;5.57;;;3.10;;
9671;SDS011;4874;43.568;27.824;2023-08-06T13:56:11;6.03;;;3.03;;
9671;SDS011;4874;43.568;27.824;2023-08-06T13:58:38;8.98;;;2.95;;
9671;SDS011;4874;43.568;27.824;2023-08-06T14:01:05;4.25;;;2.92;;
9671;SDS011;4874;43.568;27.824;2023-08-06T14:03:32;5.38;;;3.10;;
9671;SDS011;4874;43.568;27.824;2023-08-06T14:05:59;4.75;;;2.88;;
9671;SDS011;4874;43.568;27.824;2023-08-06T14:08:26;4.13;;;2.83;;
9671;SDS011;4874;43.568;27.824;2023-08-06T14:10:53;5.57;;;2.88;;
9671;SDS011;4874;43.568;27.824;2023-08-06T14:13:21;4.28;;;2.75;;
9671;SDS011;4874;43.568;27.824;2023-08-06T14:15:48;4.35;;;2.80;;
9671;SDS011;4874;43.568;27.824;2023-08-06T14:18:15;5.47;;;2.88;;
9671;SDS011;4874;43.568;27.824;2023-08-06T14:20:43;5.57;;;3.00;;
9671;SDS011;4874;43.568;27.824;2023-08-06T14:23:10;5.32;;;3.40;;
9671;SDS011;4874;43.568;27.824;2023-08-06T14:25:37;7.45;;;3.25;;
9671;SDS011;4874;43.568;27.824;2023-08-06T14:28:05;4.78;;;3.15;;
9671;SDS011;4874;43.568;27.824;2023-08-06T14:30:33;4.88;;;2.97;;
9671;SDS011;4874;43.568;27.824;2023-08-06T14:33:01;4.40;;;3.13;;
9671;SDS011;4874;43.568;27.824;2023-08-06T14:35:46;4.65;;;3.05;;
9671;SDS011;4874;43.568;27.824;2023-08-06T14:38:13;6.22;;;3.03;;
9671;SDS011;4874;43.568;27.824;2023-08-06T14:40:40;5.75;;;3.25;;
9671;SDS011;4874;43.568;27.824;2023-08-06T14:43:07;4.80;;;3.28;;
9671;SDS011;4874;43.568;27.824;2023-08-06T14:45:37;4.65;;;3.10;;
9671;SDS011;4874;43.568;27.824;2023-08-06T14:48:05;5.38;;;3.33;;
9671;SDS011;4874;43.568;27.824;2023-08-06T14:50:33;5.38;;;3.10;;
9671;SDS011;4874;43.568;27.824;2023-08-06T14:52:59;4.57;;;3.47;;
9671;SDS011;4874;43.568;27.824;2023-08-06T14:55:30;5.95;;;3.13;;
9671;SDS011;4874;43.568;27.824;2023-08-06T14:57:58;4.45;;;3.03;;
9671;SDS011;4874;43.568;27.824;2023-08-06T15:00:27;5.22;;;3.25;;
9671;SDS011;4874;43.568;27.824;2023-08-06T15:02:54;6.90;;;3.58;;
9671;SDS011;4874;43.568;27.824;2023-08-06T15:05:21;4.75;;;3.30;;
9671;SDS011;4874;43.568;27.824;2023-08-06T15:07:48;6.25;;;3.53;;